Suffield, Canada
Current Conditions -  °F | °C
As of 2:00 PM on Friday 31 Oct 2014 (Local Time) from CYXH Reporting Station
Broken Clouds Broken Clouds  
Wind Chill: 61°   Ceiling: 28000
Heat Index: 61°   Visibility: 30mi
Dew Point: 36°   Wind: 17mph
Humidity: 39%   Direction: 200°SSW
Pressure: 29.63"   Gusts: NA
Location:  50.21°N, 111.18°W
Report Text: CYXH 312000Z 20015KT 30SM BKN280 16/02 A2963 RMK CI7 SLP039 DENSITY ALT 3300FT
Loading
Personal Weather Stations






























Interactive Weather Map
Tropical Storm Tracking
New forecast layout! Learn more

10-Day Weather Forecast

Advertisements
Track Severe Weather on mobile